Time;durP1;ratioP1;P1;durP2;ratioP2;P2;SDS_P1;SDS_P2;PMS_P1;PMS_P2;Temp;Humidity;BMP_temperature;BMP_pressure;BME280_temperature;BME280_humidity;BME280_pressure;Samples;Min_cycle;Max_cycle;Signal;HPM_P1;HPM_P2
2020/12/22 00:02:10;;;;;;;8.63;7.50;;;;;;;;;;5039131;28;20175;-75
2020/12/22 00:04:35;;;;;;;13.17;7.77;;;;;;;;;;5039284;28;20794;-75
2020/12/22 00:07:00;;;;;;;9.10;7.07;;;;;;;;;;5038415;28;20201;-75
2020/12/22 00:09:26;;;;;;;12.43;8.37;;;;;;;;;;5038968;28;20189;-75
2020/12/22 00:11:51;;;;;;;10.53;8.20;;;;;;;;;;5039254;28;20605;-74
2020/12/22 00:14:17;;;;;;;11.90;8.50;;;;;;;;;;5038911;28;20217;-75
2020/12/22 00:16:42;;;;;;;11.97;8.93;;;;;;;;;;5037714;28;20217;-75
2020/12/22 00:19:07;;;;;;;11.07;8.10;;;;;;;;;;5038995;28;20204;-75
2020/12/22 00:21:33;;;;;;;9.27;7.97;;;;;;;;;;5038244;28;20218;-74
2020/12/22 00:23:59;;;;;;;10.97;9.30;;;;;;;;;;5039115;28;20254;-75
2020/12/22 00:26:24;;;;;;;11.73;9.83;;;;;;;;;;5020396;28;20195;-75
2020/12/22 00:28:49;;;;;;;11.80;9.13;;;;;;;;;;5038648;28;21024;-74
2020/12/22 00:31:14;;;;;;;10.03;7.83;;;;;;;;;;5039318;28;20196;-75
2020/12/22 00:33:40;;;;;;;13.47;9.07;;;;;;;;;;5038943;28;20278;-75
2020/12/22 00:36:06;;;;;;;15.73;9.27;;;;;;;;;;5038481;28;20941;-74
2020/12/22 00:38:31;;;;;;;12.07;8.90;;;;;;;;;;5020358;28;20324;-74
2020/12/22 00:40:57;;;;;;;11.23;9.13;;;;;;;;;;5038647;28;20191;-74
2020/12/22 00:43:22;;;;;;;12.50;9.67;;;;;;;;;;5038050;28;20758;-74
2020/12/22 00:45:47;;;;;;;11.07;8.57;;;;;;;;;;5038712;28;20217;-74
2020/12/22 00:48:13;;;;;;;13.20;11.03;;;;;;;;;;5021114;28;20195;-74
2020/12/22 00:50:38;;;;;;;14.83;10.80;;;;;;;;;;5039325;28;20201;-74
2020/12/22 00:53:03;;;;;;;9.80;8.23;;;;;;;;;;5041268;28;20179;-74
2020/12/22 00:55:29;;;;;;;13.43;10.50;;;;;;;;;;5024360;28;20246;-74
2020/12/22 00:57:55;;;;;;;13.17;10.30;;;;;;;;;;5041760;28;20187;-74
2020/12/22 01:00:22;;;;;;;13.07;10.43;;;;;;;;;;5041402;28;20288;-74
2020/12/22 01:02:47;;;;;;;14.53;11.23;;;;;;;;;;5032517;28;20285;-75
2020/12/22 01:05:12;;;;;;;12.57;10.27;;;;;;;;;;5038924;28;20287;-75
2020/12/22 01:07:37;;;;;;;12.77;10.67;;;;;;;;;;5038102;28;20257;-75
2020/12/22 01:10:03;;;;;;;12.07;10.23;;;;;;;;;;5038384;28;20198;-75
2020/12/22 01:12:28;;;;;;;13.27;10.60;;;;;;;;;;5020774;28;20199;-75
2020/12/22 01:14:54;;;;;;;14.40;10.70;;;;;;;;;;5031455;28;20223;-74
2020/12/22 01:17:19;;;;;;;15.97;10.93;;;;;;;;;;5038624;28;20190;-75
2020/12/22 01:19:45;;;;;;;14.10;10.80;;;;;;;;;;5038491;28;20189;-75
2020/12/22 01:22:10;;;;;;;13.97;11.50;;;;;;;;;;5038941;28;20188;-75
2020/12/22 01:24:35;;;;;;;14.77;11.10;;;;;;;;;;5038557;28;20205;-75
2020/12/22 01:27:01;;;;;;;14.20;10.87;;;;;;;;;;5038967;28;20243;-75
2020/12/22 01:29:26;;;;;;;12.93;10.73;;;;;;;;;;5038245;28;20239;-74
2020/12/22 01:31:51;;;;;;;12.17;10.57;;;;;;;;;;5039536;28;20199;-74
2020/12/22 01:34:17;;;;;;;13.30;9.57;;;;;;;;;;5039076;28;20214;-75
2020/12/22 01:36:42;;;;;;;13.50;11.13;;;;;;;;;;5020090;28;20215;-74
2020/12/22 01:39:07;;;;;;;14.27;11.00;;;;;;;;;;5038567;28;20799;-74
2020/12/22 01:41:36;;;;;;;12.83;10.33;;;;;;;;;;5038531;28;20186;-74
2020/12/22 01:44:01;;;;;;;15.77;10.33;;;;;;;;;;5038695;28;20316;-75
2020/12/22 01:46:32;;;;;;;13.23;10.87;;;;;;;;;;5038147;28;20199;-76
2020/12/22 01:48:58;;;;;;;14.17;10.83;;;;;;;;;;5038917;28;20187;-74
2020/12/22 01:51:23;;;;;;;12.17;9.90;;;;;;;;;;5037809;28;20187;-75
2020/12/22 01:53:49;;;;;;;46.80;11.63;;;;;;;;;;5038682;28;20738;-75
2020/12/22 01:56:14;;;;;;;10.90;8.23;;;;;;;;;;5038253;28;20198;-75
2020/12/22 01:58:40;;;;;;;10.53;7.90;;;;;;;;;;5037747;28;20185;-75
2020/12/22 02:01:05;;;;;;;11.93;9.07;;;;;;;;;;5020436;28;20827;-75
2020/12/22 02:03:31;;;;;;;15.10;10.67;;;;;;;;;;5038248;28;20189;-74
2020/12/22 02:05:56;;;;;;;13.73;10.67;;;;;;;;;;5038104;28;20198;-75
2020/12/22 02:08:21;;;;;;;12.10;9.30;;;;;;;;;;5038224;28;20197;-75
2020/12/22 02:10:50;;;;;;;15.53;11.87;;;;;;;;;;5038370;28;20222;-75
2020/12/22 02:13:15;;;;;;;14.43;12.07;;;;;;;;;;5031541;28;20294;-75
2020/12/22 02:15:41;;;;;;;16.43;11.70;;;;;;;;;;5041591;28;20219;-75
2020/12/22 02:18:06;;;;;;;14.60;11.23;;;;;;;;;;5042359;28;20822;-74
2020/12/22 02:20:31;;;;;;;15.10;11.80;;;;;;;;;;5041122;28;20189;-75
2020/12/22 02:22:57;;;;;;;13.43;11.07;;;;;;;;;;5042079;28;20209;-75
2020/12/22 02:25:22;;;;;;;62.63;12.53;;;;;;;;;;5041226;28;20295;-75
2020/12/22 02:27:47;;;;;;;15.73;11.70;;;;;;;;;;5035203;28;20214;-73
2020/12/22 02:30:13;;;;;;;12.70;9.60;;;;;;;;;;5043244;28;20215;-75
2020/12/22 02:32:38;;;;;;;14.73;11.57;;;;;;;;;;5040407;28;20283;-75
2020/12/22 02:35:04;;;;;;;15.63;12.73;;;;;;;;;;5040667;28;20212;-75
2020/12/22 02:37:29;;;;;;;14.27;11.43;;;;;;;;;;5041709;28;20191;-75
2020/12/22 02:39:55;;;;;;;15.10;11.03;;;;;;;;;;5041407;28;20221;-75
2020/12/22 02:42:20;;;;;;;15.53;11.20;;;;;;;;;;5040528;28;20262;-75
2020/12/22 02:44:45;;;;;;;16.13;11.67;;;;;;;;;;5041020;28;20219;-75
2020/12/22 02:47:12;;;;;;;13.33;11.17;;;;;;;;;;5022845;28;20199;-75
2020/12/22 02:49:38;;;;;;;11.63;9.17;;;;;;;;;;5041048;28;20998;-75
2020/12/22 02:52:03;;;;;;;13.93;10.93;;;;;;;;;;5040892;28;20193;-75
2020/12/22 02:54:29;;;;;;;14.00;10.50;;;;;;;;;;5041207;28;20217;-74
2020/12/22 02:56:54;;;;;;;15.77;10.63;;;;;;;;;;5041019;28;20671;-73
2020/12/22 02:59:19;;;;;;;13.30;10.37;;;;;;;;;;5041426;28;20197;-74
2020/12/22 03:01:44;;;;;;;9.40;6.97;;;;;;;;;;5041312;28;20191;-73
2020/12/22 03:04:12;;;;;;;12.80;10.50;;;;;;;;;;5040608;28;20215;-73
2020/12/22 03:06:37;;;;;;;11.67;9.80;;;;;;;;;;5040840;28;20201;-73
2020/12/22 03:09:03;;;;;;;12.93;9.33;;;;;;;;;;5040663;28;20228;-73
2020/12/22 03:11:28;;;;;;;19.40;11.23;;;;;;;;;;5040580;28;20594;-73
2020/12/22 03:13:53;;;;;;;11.33;8.93;;;;;;;;;;5041145;28;20206;-74
2020/12/22 03:16:19;;;;;;;11.40;9.90;;;;;;;;;;5040708;28;20291;-73
2020/12/22 03:18:44;;;;;;;12.43;9.43;;;;;;;;;;5040664;28;20183;-73
2020/12/22 03:21:09;;;;;;;10.37;7.97;;;;;;;;;;5040414;28;20304;-73
2020/12/22 03:23:34;;;;;;;12.73;9.97;;;;;;;;;;5040725;28;20207;-73
2020/12/22 03:26:00;;;;;;;13.77;9.10;;;;;;;;;;5040133;28;20590;-73
2020/12/22 03:28:25;;;;;;;12.50;10.00;;;;;;;;;;5040155;28;21001;-73
2020/12/22 03:30:50;;;;;;;11.83;10.03;;;;;;;;;;5040138;28;20197;-73
2020/12/22 03:33:16;;;;;;;12.00;9.47;;;;;;;;;;5040304;28;20244;-74
2020/12/22 03:35:41;;;;;;;9.80;8.43;;;;;;;;;;5039787;28;21340;-74
2020/12/22 03:38:06;;;;;;;11.03;9.40;;;;;;;;;;5040505;28;20957;-74
2020/12/22 03:40:32;;;;;;;11.93;9.80;;;;;;;;;;5039892;28;20199;-74
2020/12/22 03:42:57;;;;;;;12.47;9.23;;;;;;;;;;5039557;28;20179;-73
2020/12/22 03:45:23;;;;;;;10.87;8.47;;;;;;;;;;5039769;28;20987;-74
2020/12/22 03:47:49;;;;;;;10.73;8.43;;;;;;;;;;5040207;28;20209;-74
2020/12/22 03:50:14;;;;;;;9.17;7.30;;;;;;;;;;5041802;28;20238;-74
2020/12/22 03:52:40;;;;;;;9.63;7.97;;;;;;;;;;5039678;28;20195;-73
2020/12/22 03:55:05;;;;;;;10.23;7.00;;;;;;;;;;5039276;28;20559;-73
2020/12/22 03:57:30;;;;;;;10.17;8.23;;;;;;;;;;5039751;28;20263;-73
2020/12/22 03:59:55;;;;;;;11.10;8.07;;;;;;;;;;5039707;28;20191;-74
2020/12/22 04:02:21;;;;;;;11.17;7.67;;;;;;;;;;5039772;28;20194;-74
2020/12/22 04:04:46;;;;;;;10.50;8.50;;;;;;;;;;5021271;28;20217;-73
2020/12/22 04:07:11;;;;;;;9.67;7.43;;;;;;;;;;5039421;28;20195;-73
2020/12/22 04:09:37;;;;;;;23.50;8.70;;;;;;;;;;5039243;28;20193;-73
2020/12/22 04:12:02;;;;;;;8.83;7.67;;;;;;;;;;5039051;28;20196;-72
2020/12/22 04:14:27;;;;;;;9.30;7.63;;;;;;;;;;5039140;28;20226;-73
2020/12/22 04:16:52;;;;;;;9.10;8.07;;;;;;;;;;5038758;28;20238;-71
2020/12/22 04:19:18;;;;;;;8.90;7.87;;;;;;;;;;5039083;28;20191;-71
2020/12/22 04:21:43;;;;;;;9.43;7.95;;;;;;;;;;5039332;28;21035;-72
2020/12/22 04:24:08;;;;;;;8.73;7.50;;;;;;;;;;5038882;28;20249;-70
2020/12/22 04:26:34;;;;;;;9.20;8.20;;;;;;;;;;5039847;28;20194;-73
2020/12/22 04:29:00;;;;;;;11.00;7.93;;;;;;;;;;5039248;28;20183;-71
2020/12/22 04:31:25;;;;;;;11.17;7.90;;;;;;;;;;5038717;28;20209;-76
2020/12/22 04:33:50;;;;;;;8.83;6.60;;;;;;;;;;5038296;28;20219;-73
2020/12/22 04:36:16;;;;;;;9.87;7.87;;;;;;;;;;5019796;28;20201;-72
2020/12/22 04:38:41;;;;;;;15.97;11.83;;;;;;;;;;5038365;28;21069;-70
2020/12/22 04:41:09;;;;;;;13.77;10.17;;;;;;;;;;5019451;28;20695;-72
2020/12/22 04:43:35;;;;;;;11.30;8.80;;;;;;;;;;5036442;28;20183;-72
2020/12/22 04:46:02;;;;;;;11.50;8.65;;;;;;;;;;5038412;28;21041;-71
2020/12/22 04:48:29;;;;;;;8.33;7.23;;;;;;;;;;5037169;28;20238;-73
2020/12/22 04:50:54;;;;;;;10.82;8.48;;;;;;;;;;5038437;28;20187;-73
2020/12/22 04:53:20;;;;;;;10.52;7.13;;;;;;;;;;5037952;28;20479;-72
2020/12/22 04:55:45;;;;;;;9.07;6.93;;;;;;;;;;5034906;28;20222;-72
2020/12/22 04:58:11;;;;;;;8.60;6.47;;;;;;;;;;5038394;28;20868;-72
2020/12/22 05:00:36;;;;;;;12.30;9.27;;;;;;;;;;5037449;28;20213;-70
2020/12/22 05:03:02;;;;;;;10.18;8.70;;;;;;;;;;5037069;28;20290;-71
2020/12/22 05:05:27;;;;;;;7.65;6.78;;;;;;;;;;5035604;28;20211;-71
2020/12/22 05:07:53;;;;;;;8.05;6.97;;;;;;;;;;5037037;28;20728;-71
2020/12/22 05:10:18;;;;;;;7.20;6.33;;;;;;;;;;5037069;28;20964;-71
2020/12/22 05:12:43;;;;;;;13.25;7.97;;;;;;;;;;5037584;28;20222;-74
2020/12/22 05:15:09;;;;;;;8.40;6.60;;;;;;;;;;5037524;28;20333;-72
2020/12/22 05:17:41;;;;;;;8.15;6.07;;;;;;;;;;5040153;28;20244;-71
2020/12/22 05:20:08;;;;;;;11.97;7.80;;;;;;;;;;5042983;28;20195;-73
2020/12/22 05:22:35;;;;;;;7.13;6.20;;;;;;;;;;5022081;28;20170;-72
2020/12/22 05:25:00;;;;;;;7.45;6.50;;;;;;;;;;5037908;28;20303;-75
2020/12/22 05:27:26;;;;;;;8.95;6.78;;;;;;;;;;5037882;28;20200;-70
2020/12/22 05:29:51;;;;;;;7.57;6.37;;;;;;;;;;5042498;28;20200;-72
2020/12/22 05:32:17;;;;;;;6.95;5.93;;;;;;;;;;5034786;28;20196;-72
2020/12/22 05:34:42;;;;;;;7.80;6.30;;;;;;;;;;5037425;28;20219;-72
2020/12/22 05:37:08;;;;;;;9.60;8.20;;;;;;;;;;5037031;28;20219;-72
2020/12/22 05:39:36;;;;;;;6.23;5.30;;;;;;;;;;5036593;28;20215;-71
2020/12/22 05:42:11;;;;;;;7.23;5.43;;;;;;;;;;5038118;28;20251;-71
2020/12/22 05:44:40;;;;;;;5.65;5.00;;;;;;;;;;5037618;28;20210;-73
2020/12/22 05:47:05;;;;;;;10.73;7.80;;;;;;;;;;5037780;28;20282;-73
2020/12/22 05:49:30;;;;;;;11.80;8.85;;;;;;;;;;5041803;28;20183;-73
2020/12/22 05:51:56;;;;;;;5.00;4.50;;;;;;;;;;5042736;28;20192;-74
2020/12/22 05:54:22;;;;;;;6.50;5.15;;;;;;;;;;5041855;28;20930;-72
2020/12/22 05:56:47;;;;;;;9.05;6.50;;;;;;;;;;5041223;28;20207;-73
2020/12/22 05:59:16;;;;;;;8.55;4.80;;;;;;;;;;5040656;28;20186;-71
2020/12/22 06:01:41;;;;;;;8.52;5.95;;;;;;;;;;5023470;28;20218;-70
2020/12/22 06:04:08;;;;;;;9.73;7.75;;;;;;;;;;5042099;28;20278;-71
2020/12/22 06:06:34;;;;;;;8.23;4.28;;;;;;;;;;5023682;28;20206;-71
2020/12/22 06:08:59;;;;;;;7.47;3.80;;;;;;;;;;5042067;28;20187;-71
2020/12/22 06:11:27;;;;;;;5.82;4.30;;;;;;;;;;5041844;28;20289;-74
2020/12/22 06:13:52;;;;;;;9.13;7.40;;;;;;;;;;5041847;28;20902;-71
2020/12/22 06:16:18;;;;;;;4.78;4.28;;;;;;;;;;5040614;28;20207;-71
2020/12/22 06:18:44;;;;;;;7.95;5.65;;;;;;;;;;5042196;28;20195;-71
2020/12/22 06:21:11;;;;;;;5.90;3.28;;;;;;;;;;5033702;28;20197;-74
2020/12/22 06:23:36;;;;;;;4.95;3.95;;;;;;;;;;5046063;28;20670;-75
2020/12/22 06:26:05;;;;;;;4.72;3.42;;;;;;;;;;5058277;28;20221;-73
2020/12/22 06:28:31;;;;;;;6.28;4.53;;;;;;;;;;5051842;28;20192;-73
2020/12/22 06:30:56;;;;;;;7.85;6.22;;;;;;;;;;5054488;28;20174;-75
2020/12/22 06:33:26;;;;;;;5.35;4.18;;;;;;;;;;5055328;28;20194;-67
2020/12/22 06:36:08;;;;;;;4.57;3.80;;;;;;;;;;5046706;28;20210;-75
2020/12/22 06:38:47;;;;;;;5.25;4.38;;;;;;;;;;5058649;28;21093;-70
2020/12/22 06:41:32;;;;;;;3.65;3.13;;;;;;;;;;5060995;28;20678;-70
2020/12/22 06:44:09;;;;;;;3.65;2.50;;;;;;;;;;5041107;28;20206;-71
2020/12/22 06:46:35;;;;;;;6.07;4.43;;;;;;;;;;5058028;28;20669;-70
2020/12/22 06:49:00;;;;;;;2.47;1.80;;;;;;;;;;5052549;28;20248;-72
2020/12/22 06:51:39;;;;;;;3.13;2.70;;;;;;;;;;5051706;28;20186;-73
2020/12/22 06:54:24;;;;;;;4.82;2.58;;;;;;;;;;5035458;28;20291;-75
2020/12/22 06:56:50;;;;;;;3.35;2.60;;;;;;;;;;5052244;28;20261;-72
2020/12/22 06:59:38;;;;;;;2.05;1.50;;;;;;;;;;5052392;28;20278;-73
2020/12/22 07:02:03;;;;;;;2.83;1.63;;;;;;;;;;5044419;28;20213;-71
2020/12/22 07:04:38;;;;;;;2.45;2.17;;;;;;;;;;5057960;28;20195;-71
2020/12/22 07:07:04;;;;;;;3.15;2.35;;;;;;;;;;5056050;28;20256;-72
2020/12/22 07:09:31;;;;;;;3.10;2.47;;;;;;;;;;5057548;28;20277;-71
2020/12/22 07:12:10;;;;;;;3.80;2.35;;;;;;;;;;5051611;28;20198;-71
2020/12/22 07:14:40;;;;;;;3.55;2.30;;;;;;;;;;5050749;28;20257;-71
2020/12/22 07:17:05;;;;;;;4.28;2.35;;;;;;;;;;5033860;28;20314;-72
2020/12/22 07:19:31;;;;;;;4.18;1.90;;;;;;;;;;5057867;28;20911;-70
2020/12/22 07:21:57;;;;;;;2.67;1.83;;;;;;;;;;5046000;28;20180;-68
2020/12/22 07:24:24;;;;;;;3.88;2.70;;;;;;;;;;5049759;28;20195;-65
2020/12/22 07:26:49;;;;;;;3.78;2.33;;;;;;;;;;5050867;28;20191;-65
2020/12/22 07:29:14;;;;;;;3.88;1.75;;;;;;;;;;5053188;28;20254;-66
2020/12/22 07:31:42;;;;;;;2.05;1.63;;;;;;;;;;5051769;28;20198;-65
2020/12/22 07:34:07;;;;;;;1.20;1.00;;;;;;;;;;5053409;28;20215;-65
2020/12/22 07:36:33;;;;;;;2.03;1.35;;;;;;;;;;5051257;28;20670;-65
2020/12/22 07:39:17;;;;;;;2.30;1.63;;;;;;;;;;5057685;28;20638;-66
2020/12/22 07:41:43;;;;;;;2.35;1.52;;;;;;;;;;5057048;28;20191;-64
2020/12/22 07:44:09;;;;;;;2.35;1.30;;;;;;;;;;5052264;28;20211;-66
2020/12/22 07:46:35;;;;;;;1.58;1.42;;;;;;;;;;5057239;28;20187;-64
2020/12/22 07:49:07;;;;;;;1.02;0.80;;;;;;;;;;5053035;28;20583;-64
2020/12/22 07:51:33;;;;;;;1.33;0.90;;;;;;;;;;5049765;28;20183;-64
2020/12/22 07:53:59;;;;;;;2.63;1.70;;;;;;;;;;5059308;28;20715;-65
2020/12/22 07:56:25;;;;;;;2.13;1.45;;;;;;;;;;5057312;28;20210;-66
2020/12/22 07:58:51;;;;;;;1.77;1.58;;;;;;;;;;5059378;28;20179;-63
2020/12/22 08:01:16;;;;;;;1.58;1.10;;;;;;;;;;5059284;28;20870;-64
2020/12/22 08:03:42;;;;;;;2.05;1.17;;;;;;;;;;5052530;28;20187;-64
2020/12/22 08:06:07;;;;;;;2.08;1.67;;;;;;;;;;5051726;28;20192;-64
2020/12/22 08:08:34;;;;;;;4.18;2.75;;;;;;;;;;5053453;28;20180;-64
2020/12/22 08:10:59;;;;;;;3.25;1.95;;;;;;;;;;5054748;28;20195;-64
2020/12/22 08:13:26;;;;;;;2.22;1.33;;;;;;;;;;5057076;28;20191;-64
2020/12/22 08:15:52;;;;;;;1.20;0.73;;;;;;;;;;5055427;28;20218;-64
2020/12/22 08:18:17;;;;;;;2.95;1.52;;;;;;;;;;5050505;28;20674;-64
2020/12/22 08:20:42;;;;;;;2.25;1.80;;;;;;;;;;5046570;28;20470;-64
2020/12/22 08:23:08;;;;;;;3.55;3.15;;;;;;;;;;5021868;28;20639;-64
2020/12/22 08:25:33;;;;;;;0.88;0.70;;;;;;;;;;5038793;28;20210;-64
2020/12/22 08:27:59;;;;;;;3.38;2.95;;;;;;;;;;5054002;28;20262;-64
2020/12/22 08:30:24;;;;;;;2.78;2.30;;;;;;;;;;5048258;28;20223;-65
2020/12/22 08:32:49;;;;;;;4.47;3.50;;;;;;;;;;5058978;28;20195;-65
2020/12/22 08:35:19;;;;;;;2.30;1.98;;;;;;;;;;5054094;28;20238;-65
2020/12/22 08:37:44;;;;;;;1.02;0.82;;;;;;;;;;5056273;28;20984;-64
2020/12/22 08:40:09;;;;;;;3.00;2.50;;;;;;;;;;5056350;28;20175;-64
2020/12/22 08:42:35;;;;;;;3.10;1.92;;;;;;;;;;5058559;28;20252;-64
2020/12/22 08:45:00;;;;;;;0.73;0.45;;;;;;;;;;5035296;28;20842;-64
2020/12/22 08:47:25;;;;;;;1.33;0.98;;;;;;;;;;5053549;28;20191;-63
2020/12/22 08:49:51;;;;;;;3.92;1.67;;;;;;;;;;5052106;28;20187;-71
2020/12/22 08:52:19;;;;;;;1.95;1.38;;;;;;;;;;5051470;28;20175;-63
2020/12/22 08:54:45;;;;;;;3.40;2.72;;;;;;;;;;5047429;28;20302;-63
2020/12/22 08:57:23;;;;;;;2.72;2.30;;;;;;;;;;5047885;28;20210;-64
2020/12/22 08:59:49;;;;;;;8.52;7.57;;;;;;;;;;5035135;28;20186;-62
2020/12/22 09:02:23;;;;;;;4.50;4.10;;;;;;;;;;5049439;28;20170;-64
2020/12/22 09:04:48;;;;;;;4.65;3.90;;;;;;;;;;5043506;28;20285;-65
2020/12/22 09:07:14;;;;;;;5.00;3.95;;;;;;;;;;5050808;28;20638;-65
2020/12/22 09:09:39;;;;;;;2.88;2.38;;;;;;;;;;5056163;28;20193;-67
2020/12/22 09:12:05;;;;;;;13.00;11.13;;;;;;;;;;5049786;28;20210;-66
2020/12/22 09:14:43;;;;;;;3.40;3.10;;;;;;;;;;5047079;28;20226;-66
2020/12/22 09:17:08;;;;;;;3.17;2.83;;;;;;;;;;5058012;28;20202;-66
2020/12/22 09:19:41;;;;;;;4.15;1.52;;;;;;;;;;5054087;28;20183;-60
2020/12/22 09:22:07;;;;;;;3.95;2.75;;;;;;;;;;5043144;28;20855;-69
2020/12/22 09:24:33;;;;;;;3.40;3.10;;;;;;;;;;5049400;28;20215;-66
2020/12/22 09:27:00;;;;;;;6.80;5.65;;;;;;;;;;5055765;28;20640;-66
2020/12/22 09:29:26;;;;;;;3.50;2.20;;;;;;;;;;5054747;28;20602;-66
2020/12/22 09:31:53;;;;;;;4.22;3.28;;;;;;;;;;5035466;28;20270;-66
2020/12/22 09:34:19;;;;;;;4.03;3.20;;;;;;;;;;5057200;28;20848;-67
2020/12/22 09:36:48;;;;;;;6.88;3.60;;;;;;;;;;5048607;28;20205;-67
2020/12/22 09:39:14;;;;;;;3.50;2.83;;;;;;;;;;5047577;28;20188;-67
2020/12/22 09:41:40;;;;;;;5.82;3.88;;;;;;;;;;5048239;28;21022;-66
2020/12/22 09:44:05;;;;;;;3.15;2.55;;;;;;;;;;5052064;28;20250;-66
2020/12/22 09:46:31;;;;;;;2.28;1.55;;;;;;;;;;5055871;28;20195;-66
2020/12/22 09:48:56;;;;;;;3.95;3.33;;;;;;;;;;5046312;28;20266;-65
2020/12/22 09:51:21;;;;;;;2.38;1.70;;;;;;;;;;5057555;28;20201;-66
2020/12/22 09:53:46;;;;;;;2.92;2.53;;;;;;;;;;5061972;28;20303;-66
2020/12/22 09:56:12;;;;;;;3.80;3.08;;;;;;;;;;5053401;28;20203;-66
2020/12/22 09:58:37;;;;;;;5.13;3.83;;;;;;;;;;5057806;28;20203;-66
2020/12/22 10:01:03;;;;;;;2.63;2.00;;;;;;;;;;5052621;28;20658;-66
2020/12/22 10:03:28;;;;;;;4.45;2.75;;;;;;;;;;5053870;28;21106;-66
2020/12/22 10:05:53;;;;;;;2.90;1.95;;;;;;;;;;5044531;28;20785;-66
2020/12/22 10:08:18;;;;;;;3.08;2.08;;;;;;;;;;5048853;28;20184;-66
2020/12/22 10:10:44;;;;;;;1.30;1.00;;;;;;;;;;5049172;28;20759;-66
2020/12/22 10:13:09;;;;;;;2.03;1.58;;;;;;;;;;5046845;28;20186;-66
2020/12/22 10:15:34;;;;;;;8.18;6.20;;;;;;;;;;5055155;28;20214;-66
2020/12/22 10:17:59;;;;;;;6.00;3.30;;;;;;;;;;5056685;28;20722;-68
2020/12/22 10:20:25;;;;;;;5.63;3.53;;;;;;;;;;5049344;28;20188;-66
2020/12/22 10:22:50;;;;;;;10.68;7.25;;;;;;;;;;5041338;28;20593;-68
2020/12/22 10:25:15;;;;;;;5.45;3.30;;;;;;;;;;5052737;28;20301;-68
2020/12/22 10:27:41;;;;;;;5.57;3.97;;;;;;;;;;5054344;28;20187;-68
2020/12/22 10:30:06;;;;;;;3.88;2.15;;;;;;;;;;5056216;28;20175;-68
2020/12/22 10:32:31;;;;;;;4.82;1.92;;;;;;;;;;5047284;28;20196;-66
2020/12/22 10:34:57;;;;;;;4.15;2.05;;;;;;;;;;5050657;28;20209;-66
2020/12/22 10:37:22;;;;;;;7.50;4.70;;;;;;;;;;5050624;28;20282;-67
2020/12/22 10:39:51;;;;;;;23.10;15.38;;;;;;;;;;5052655;28;20653;-66
2020/12/22 10:42:17;;;;;;;4.43;2.30;;;;;;;;;;5051695;28;20197;-67
2020/12/22 10:44:42;;;;;;;2.05;1.80;;;;;;;;;;5053268;28;20226;-68
2020/12/22 10:47:07;;;;;;;6.25;2.47;;;;;;;;;;5052644;28;21102;-66
2020/12/22 10:49:33;;;;;;;2.63;0.65;;;;;;;;;;5057891;28;20224;-68
2020/12/22 10:51:58;;;;;;;3.25;1.90;;;;;;;;;;5050201;28;21006;-67
2020/12/22 10:54:23;;;;;;;1.63;1.45;;;;;;;;;;5049216;28;20218;-68
2020/12/22 10:56:49;;;;;;;2.08;1.88;;;;;;;;;;5050296;28;20231;-68
2020/12/22 10:59:14;;;;;;;1.95;1.30;;;;;;;;;;5055442;28;20362;-67
2020/12/22 11:01:40;;;;;;;1.98;1.63;;;;;;;;;;5053445;28;20190;-68
2020/12/22 11:04:05;;;;;;;1.42;1.13;;;;;;;;;;5051465;28;20211;-68
2020/12/22 11:08:59;;;;;;;3.90;3.20;;;;;;;;;;5058789;28;20286;-68
2020/12/22 11:11:25;;;;;;;1.98;1.50;;;;;;;;;;5052255;28;20191;-68
2020/12/22 11:13:50;;;;;;;3.25;1.75;;;;;;;;;;5034115;28;20279;-69
2020/12/22 11:16:15;;;;;;;2.08;1.85;;;;;;;;;;5058193;28;20932;-68
2020/12/22 11:18:41;;;;;;;4.35;3.60;;;;;;;;;;5057938;28;20180;-68
2020/12/22 11:21:12;;;;;;;2.15;1.45;;;;;;;;;;5028094;28;20206;-68
2020/12/22 11:23:38;;;;;;;3.38;2.95;;;;;;;;;;5041147;28;20190;-68
2020/12/22 11:26:03;;;;;;;2.20;2.00;;;;;;;;;;5052866;28;20195;-68
2020/12/22 11:28:29;;;;;;;4.30;3.90;;;;;;;;;;5049184;28;20221;-68
2020/12/22 11:30:54;;;;;;;2.95;2.28;;;;;;;;;;5053211;28;20177;-68
2020/12/22 11:33:19;;;;;;;3.22;1.60;;;;;;;;;;5057179;28;20329;-68
2020/12/22 11:35:44;;;;;;;1.98;1.40;;;;;;;;;;5046337;28;20226;-68
2020/12/22 11:38:10;;;;;;;2.67;2.22;;;;;;;;;;5044192;28;20196;-68
2020/12/22 11:40:35;;;;;;;2.35;1.98;;;;;;;;;;5057948;28;20186;-68
2020/12/22 11:43:00;;;;;;;2.33;1.83;;;;;;;;;;5057643;28;20187;-68
2020/12/22 11:45:26;;;;;;;2.45;1.63;;;;;;;;;;5047404;28;20207;-68
2020/12/22 11:47:51;;;;;;;1.95;1.60;;;;;;;;;;5049809;28;20184;-68
2020/12/22 11:50:17;;;;;;;1.70;1.05;;;;;;;;;;5056665;28;20773;-67
2020/12/22 11:52:42;;;;;;;2.22;1.70;;;;;;;;;;5050243;28;20186;-68
2020/12/22 11:55:07;;;;;;;1.50;1.38;;;;;;;;;;5054502;28;20256;-68
2020/12/22 11:57:32;;;;;;;1.90;1.17;;;;;;;;;;5051966;28;20263;-68
2020/12/22 11:59:58;;;;;;;1.80;1.17;;;;;;;;;;5055745;28;20175;-68
2020/12/22 12:02:23;;;;;;;2.67;2.47;;;;;;;;;;5050943;28;20809;-68
2020/12/22 12:04:48;;;;;;;1.98;1.20;;;;;;;;;;5057202;28;20201;-68
2020/12/22 12:07:14;;;;;;;1.30;0.93;;;;;;;;;;5046465;28;20502;-68
2020/12/22 12:09:39;;;;;;;1.40;0.95;;;;;;;;;;5051446;28;20183;-68
2020/12/22 12:12:05;;;;;;;2.20;1.55;;;;;;;;;;5034690;28;20191;-68
2020/12/22 12:14:30;;;;;;;2.50;1.90;;;;;;;;;;5030812;28;20634;-68
2020/12/22 12:16:55;;;;;;;3.05;1.20;;;;;;;;;;5046796;28;20290;-68
2020/12/22 12:19:20;;;;;;;1.30;1.00;;;;;;;;;;5049460;28;20194;-68
2020/12/22 12:21:46;;;;;;;1.95;1.55;;;;;;;;;;5055010;28;20180;-68
2020/12/22 12:24:11;;;;;;;2.92;1.73;;;;;;;;;;5046251;28;20213;-68
2020/12/22 12:26:37;;;;;;;2.13;1.92;;;;;;;;;;5047552;28;20188;-68
2020/12/22 12:29:03;;;;;;;2.97;1.75;;;;;;;;;;5050138;28;20214;-68
2020/12/22 12:31:30;;;;;;;2.08;1.40;;;;;;;;;;5054186;28;20239;-68
2020/12/22 12:33:56;;;;;;;3.50;2.45;;;;;;;;;;5044858;28;20187;-68
2020/12/22 12:36:21;;;;;;;3.00;1.35;;;;;;;;;;5047962;28;20820;-68
2020/12/22 12:38:47;;;;;;;2.10;1.25;;;;;;;;;;5051072;28;20993;-68
2020/12/22 12:41:12;;;;;;;2.25;1.50;;;;;;;;;;5049159;28;20203;-68
2020/12/22 12:43:37;;;;;;;3.10;2.05;;;;;;;;;;5042274;28;20214;-68
2020/12/22 12:46:06;;;;;;;2.95;1.60;;;;;;;;;;5045356;28;20231;-68
2020/12/22 12:48:32;;;;;;;2.40;1.20;;;;;;;;;;5055521;28;20657;-69
2020/12/22 12:50:57;;;;;;;2.35;1.73;;;;;;;;;;5049286;28;20187;-68
2020/12/22 12:53:22;;;;;;;4.15;1.40;;;;;;;;;;5047485;28;20191;-68
2020/12/22 12:55:48;;;;;;;1.80;1.10;;;;;;;;;;5057354;28;20218;-68
2020/12/22 12:58:13;;;;;;;1.80;1.00;;;;;;;;;;5048656;28;20324;-68
2020/12/22 13:00:38;;;;;;;2.15;1.00;;;;;;;;;;5044720;28;20684;-69
2020/12/22 13:03:03;;;;;;;2.47;1.08;;;;;;;;;;5052226;28;20180;-68
2020/12/22 13:05:29;;;;;;;2.58;1.85;;;;;;;;;;5035270;28;20297;-68
2020/12/22 13:07:54;;;;;;;3.75;1.38;;;;;;;;;;5049988;28;20296;-68
2020/12/22 13:10:19;;;;;;;2.47;1.42;;;;;;;;;;5057405;28;20194;-68
2020/12/22 13:12:45;;;;;;;1.30;1.02;;;;;;;;;;5051031;28;20192;-69
2020/12/22 13:15:10;;;;;;;2.45;1.40;;;;;;;;;;5043588;28;20234;-69
2020/12/22 13:17:36;;;;;;;4.13;1.20;;;;;;;;;;5052343;28;20361;-68
2020/12/22 13:20:02;;;;;;;1.98;1.02;;;;;;;;;;5051302;28;20194;-69
2020/12/22 13:22:27;;;;;;;1.95;0.88;;;;;;;;;;5048889;28;20190;-70
2020/12/22 13:24:52;;;;;;;3.33;1.13;;;;;;;;;;5055998;28;20207;-69
2020/12/22 13:27:18;;;;;;;3.22;1.88;;;;;;;;;;5047512;28;20693;-74
2020/12/22 13:29:43;;;;;;;2.63;0.90;;;;;;;;;;5052633;28;20190;-77
2020/12/22 13:32:10;;;;;;;2.25;0.90;;;;;;;;;;5072723;28;20191;-73
2020/12/22 13:34:35;;;;;;;3.60;1.05;;;;;;;;;;5027344;28;21074;-74
2020/12/22 13:37:01;;;;;;;3.50;1.30;;;;;;;;;;5044634;28;20200;-73
2020/12/22 13:39:26;;;;;;;4.53;2.40;;;;;;;;;;5045259;28;20711;-73
2020/12/22 13:41:51;;;;;;;4.68;2.35;;;;;;;;;;5042234;28;20197;-73
2020/12/22 13:44:17;;;;;;;2.70;1.77;;;;;;;;;;5057098;28;21226;-72
2020/12/22 13:46:42;;;;;;;2.65;1.83;;;;;;;;;;5052855;28;20225;-71
2020/12/22 13:49:08;;;;;;;1.95;1.35;;;;;;;;;;5049030;28;20784;-75
2020/12/22 13:51:33;;;;;;;4.60;1.35;;;;;;;;;;5022169;28;20191;-73
2020/12/22 13:53:59;;;;;;;1.33;1.20;;;;;;;;;;5041685;28;20195;-72
2020/12/22 13:56:24;;;;;;;1.63;1.40;;;;;;;;;;5047791;28;20876;-71
2020/12/22 13:58:50;;;;;;;2.13;1.33;;;;;;;;;;5037140;28;20187;-72
2020/12/22 14:01:15;;;;;;;4.15;1.40;;;;;;;;;;5038661;28;20230;-71
2020/12/22 14:03:40;;;;;;;2.50;2.15;;;;;;;;;;5045038;28;20189;-72
2020/12/22 14:06:06;;;;;;;3.00;2.50;;;;;;;;;;5058849;28;20617;-72
2020/12/22 14:08:31;;;;;;;2.47;1.52;;;;;;;;;;5046229;28;20698;-71
2020/12/22 14:10:56;;;;;;;2.45;1.15;;;;;;;;;;5059085;28;20262;-68
2020/12/22 14:13:22;;;;;;;2.33;1.52;;;;;;;;;;5059049;28;20214;-76
2020/12/22 14:15:47;;;;;;;3.33;2.67;;;;;;;;;;5057926;28;20263;-72
2020/12/22 14:18:12;;;;;;;3.47;1.33;;;;;;;;;;5053556;28;20188;-71
2020/12/22 14:20:38;;;;;;;3.22;2.20;;;;;;;;;;5051208;28;20234;-71
2020/12/22 14:23:04;;;;;;;2.83;2.25;;;;;;;;;;5047405;28;20249;-74
2020/12/22 14:25:29;;;;;;;4.82;3.10;;;;;;;;;;5066722;28;20267;-72
2020/12/22 14:27:54;;;;;;;3.00;2.70;;;;;;;;;;5061654;28;20187;-71
2020/12/22 14:30:20;;;;;;;1.27;1.05;;;;;;;;;;5039809;28;20186;-72
2020/12/22 14:32:45;;;;;;;3.75;1.30;;;;;;;;;;5050658;28;20183;-71